Disclaimer

Please do not use the information listed here in-flight or in-navigation, as they are not provided to us by the airports but are provided by volunteers, so they might be outdated.

Search


Regions


Airport information page

Radio informations:
Tower (TWR) - 119.7 MHz
Ground (GND) - 135.85 MHz
Clearance delivery - 128.1 MHz
Approach (APP) - 120.95 MHz

Airport informations:
Latitude: 14° 31' 16.00" S
Longitude: 132° 22' 40.00" E
Elevation: 443 feet - 135 meters
Operating hours: Remarks
Operating agency: Military
Timezone: UTC+9:30
Fuel: Jet A1+, Jet A1 with icing inhibitor.

Jet A1, without icing nhibitor.

100/130 MIL Spec, low lead, aviation gasoline (BLUE)

Runway information:
14/32 - 9003 x 150 feet< - >2744 x 46 meters

Recent METARs:
YPTN 181500Z AUTO 27012KT 9999 -SHRA NCD 24/23 Q1009
YPTN 181600Z AUTO 31006KT 9999 // NCD 24/22 Q1008
YPTN 181600Z AUTO 31006KT 9999 // NCD 24/22 Q1008

Airport on the map: